<?xml version="1.0" encoding="UTF-8"?>
<gpx version="1.0" creator="Trackator" xmlns:xsi="http://www.w3.org/2001/XMLSchema-instance" xmlns="http://www.topografix.com/GPX/1/0" xmlns:topografix="http://www.topografix.com/GPX/Private/TopoGrafix/0/1" xsi:schemaLocation="http://www.topografix.com/GPX/1/0 http://www.topografix.com/GPX/1/0/gpx.xsd http://www.topografix.com/GPX/Private/TopoGrafix/0/1 http://www.topografix.com/GPX/Private/TopoGrafix/0/1/topografix.xsd">
<metadata>
<link href="http://www.trackator.com">
<text>Trackator</text>
</link>
</metadata>
<time>2016-01-08T19:25:27Z</time>
<trk>
<name>Track: </name>
<desc>Cycling</desc>
<trkseg>
<trkpt lat="39.3354333" lon="-0.6097816">
<ele>161</ele>
<time>2016-01-08T19:25:27Z</time>
</trkpt>
<trkpt lat="39.33546" lon="-0.6098750">
<ele>164</ele>
<time>2016-01-08T19:25:29Z</time>
</trkpt>
<trkpt lat="39.3354566" lon="-0.6099133">
<ele>168</ele>
<time>2016-01-08T19:25:31Z</time>
</trkpt>
<trkpt lat="39.3354483" lon="-0.6098983">
<ele>165</ele>
<time>2016-01-08T19:25:33Z</time>
</trkpt>
<trkpt lat="39.3354433" lon="-0.60987">
<ele>159</ele>
<time>2016-01-08T19:25:36Z</time>
</trkpt>
<trkpt lat="39.335445" lon="-0.6098433">
<ele>155</ele>
<time>2016-01-08T19:25:38Z</time>
</trkpt>
<trkpt lat="39.3354483" lon="-0.6098216">
<ele>154</ele>
<time>2016-01-08T19:25:40Z</time>
</trkpt>
<trkpt lat="39.335445" lon="-0.60981">
<ele>153</ele>
<time>2016-01-08T19:25:42Z</time>
</trkpt>
<trkpt lat="39.335445" lon="-0.6097933">
<ele>151</ele>
<time>2016-01-08T19:25:44Z</time>
</trkpt>
<trkpt lat="39.3354433" lon="-0.6097866">
<ele>151</ele>
<time>2016-01-08T19:25:46Z</time>
</trkpt>
<trkpt lat="39.3354433" lon="-0.6097766">
<ele>150</ele>
<time>2016-01-08T19:25:48Z</time>
</trkpt>
<trkpt lat="39.3354433" lon="-0.6097666">
<ele>149</ele>
<time>2016-01-08T19:25:50Z</time>
</trkpt>
<trkpt lat="39.3354483" lon="-0.6097533">
<ele>149</ele>
<time>2016-01-08T19:25:52Z</time>
</trkpt>
<trkpt lat="39.3354533" lon="-0.6097383">
<ele>149</ele>
<time>2016-01-08T19:25:54Z</time>
</trkpt>
<trkpt lat="39.33546" lon="-0.6097283">
<ele>149</ele>
<time>2016-01-08T19:25:56Z</time>
</trkpt>
<trkpt lat="39.335465" lon="-0.6097183">
<ele>149</ele>
<time>2016-01-08T19:25:58Z</time>
</trkpt>
<trkpt lat="39.335465" lon="-0.6097183">
<ele>149</ele>
<time>2016-01-08T19:26:00Z</time>
</trkpt>
<trkpt lat="39.335465" lon="-0.6097183">
<ele>149</ele>
<time>2016-01-08T19:26:02Z</time>
</trkpt>
<trkpt lat="39.335465" lon="-0.6097183">
<ele>149</ele>
<time>2016-01-08T19:26:04Z</time>
</trkpt>
<trkpt lat="39.335465" lon="-0.6097183">
<ele>149</ele>
<time>2016-01-08T19:26:06Z</time>
</trkpt>
<trkpt lat="39.335465" lon="-0.6097183">
<ele>149</ele>
<time>2016-01-08T19:26:08Z</time>
</trkpt>
<trkpt lat="39.335465" lon="-0.6097183">
<ele>149</ele>
<time>2016-01-08T19:26:10Z</time>
</trkpt>
<trkpt lat="39.335465" lon="-0.6097183">
<ele>149</ele>
<time>2016-01-08T19:26:12Z</time>
</trkpt>
<trkpt lat="39.335465" lon="-0.6097183">
<ele>149</ele>
<time>2016-01-08T19:26:14Z</time>
</trkpt>
<trkpt lat="39.335465" lon="-0.6097183">
<ele>149</ele>
<time>2016-01-08T19:26:16Z</time>
</trkpt>
<trkpt lat="39.335465" lon="-0.6097183">
<ele>149</ele>
<time>2016-01-08T19:26:18Z</time>
</trkpt>
<trkpt lat="39.335465" lon="-0.6097183">
<ele>149</ele>
<time>2016-01-08T19:26:20Z</time>
</trkpt>
<trkpt lat="39.335465" lon="-0.6097183">
<ele>149</ele>
<time>2016-01-08T19:26:22Z</time>
</trkpt>
<trkpt lat="39.335465" lon="-0.6097183">
<ele>149</ele>
<time>2016-01-08T19:26:24Z</time>
</trkpt>
<trkpt lat="39.335465" lon="-0.6097183">
<ele>149</ele>
<time>2016-01-08T19:26:26Z</time>
</trkpt>
<trkpt lat="39.335465" lon="-0.6097183">
<ele>149</ele>
<time>2016-01-08T19:26:28Z</time>
</trkpt>
<trkpt lat="39.335465" lon="-0.6097183">
<ele>149</ele>
<time>2016-01-08T19:26:30Z</time>
</trkpt>
<trkpt lat="39.335465" lon="-0.6097183">
<ele>149</ele>
<time>2016-01-08T19:26:32Z</time>
</trkpt>
<trkpt lat="39.335465" lon="-0.6097183">
<ele>149</ele>
<time>2016-01-08T19:26:34Z</time>
</trkpt>
<trkpt lat="39.335465" lon="-0.6097183">
<ele>149</ele>
<time>2016-01-08T19:26:36Z</time>
</trkpt>
<trkpt lat="39.335465" lon="-0.6097183">
<ele>149</ele>
<time>2016-01-08T19:26:38Z</time>
</trkpt>
<trkpt lat="39.3355416" lon="-0.6096466">
<ele>141</ele>
<time>2016-01-08T19:26:40Z</time>
</trkpt>
<trkpt lat="39.3355416" lon="-0.6096383">
<ele>141</ele>
<time>2016-01-08T19:26:42Z</time>
</trkpt>
<trkpt lat="39.3355416" lon="-0.6096383">
<ele>141</ele>
<time>2016-01-08T19:26:44Z</time>
</trkpt>
<trkpt lat="39.3355416" lon="-0.6096383">
<ele>141</ele>
<time>2016-01-08T19:26:46Z</time>
</trkpt>
<trkpt lat="39.3355416" lon="-0.6096383">
<ele>141</ele>
<time>2016-01-08T19:26:48Z</time>
</trkpt>
<trkpt lat="39.3355416" lon="-0.6096383">
<ele>141</ele>
<time>2016-01-08T19:26:50Z</time>
</trkpt>
<trkpt lat="39.3355416" lon="-0.6096383">
<ele>141</ele>
<time>2016-01-08T19:26:52Z</time>
</trkpt>
<trkpt lat="39.3355416" lon="-0.6096383">
<ele>141</ele>
<time>2016-01-08T19:26:54Z</time>
</trkpt>
<trkpt lat="39.3355416" lon="-0.6096383">
<ele>141</ele>
<time>2016-01-08T19:26:56Z</time>
</trkpt>
<trkpt lat="39.3355416" lon="-0.6096383">
<ele>141</ele>
<time>2016-01-08T19:26:58Z</time>
</trkpt>
<trkpt lat="39.3355416" lon="-0.6096383">
<ele>141</ele>
<time>2016-01-08T19:27:00Z</time>
</trkpt>
<trkpt lat="39.3355416" lon="-0.6096383">
<ele>141</ele>
<time>2016-01-08T19:27:02Z</time>
</trkpt>
<trkpt lat="39.3355416" lon="-0.6096383">
<ele>141</ele>
<time>2016-01-08T19:27:04Z</time>
</trkpt>
<trkpt lat="39.3355416" lon="-0.6096383">
<ele>141</ele>
<time>2016-01-08T19:27:06Z</time>
</trkpt>
<trkpt lat="39.3355416" lon="-0.6096383">
<ele>141</ele>
<time>2016-01-08T19:27:08Z</time>
</trkpt>
<trkpt lat="39.3355416" lon="-0.6096383">
<ele>141</ele>
<time>2016-01-08T19:27:10Z</time>
</trkpt>
<trkpt lat="39.3355416" lon="-0.6096383">
<ele>141</ele>
<time>2016-01-08T19:27:12Z</time>
</trkpt>
<trkpt lat="39.3355416" lon="-0.6096383">
<ele>141</ele>
<time>2016-01-08T19:27:14Z</time>
</trkpt>
<trkpt lat="39.3355416" lon="-0.6096383">
<ele>141</ele>
<time>2016-01-08T19:27:16Z</time>
</trkpt>
<trkpt lat="39.3355416" lon="-0.6096383">
<ele>141</ele>
<time>2016-01-08T19:27:18Z</time>
</trkpt>
<trkpt lat="39.3355416" lon="-0.6096383">
<ele>141</ele>
<time>2016-01-08T19:27:20Z</time>
</trkpt>
<trkpt lat="39.3355416" lon="-0.6096383">
<ele>141</ele>
<time>2016-01-08T19:27:22Z</time>
</trkpt>
<trkpt lat="39.3355416" lon="-0.6096383">
<ele>141</ele>
<time>2016-01-08T19:27:24Z</time>
</trkpt>
<trkpt lat="39.3355416" lon="-0.6096383">
<ele>141</ele>
<time>2016-01-08T19:27:26Z</time>
</trkpt>
<trkpt lat="39.3355416" lon="-0.6096383">
<ele>141</ele>
<time>2016-01-08T19:27:28Z</time>
</trkpt>
<trkpt lat="39.3355416" lon="-0.6096383">
<ele>141</ele>
<time>2016-01-08T19:27:30Z</time>
</trkpt>
<trkpt lat="39.3355416" lon="-0.6096383">
<ele>141</ele>
<time>2016-01-08T19:27:32Z</time>
</trkpt>
<trkpt lat="39.3355416" lon="-0.6096383">
<ele>141</ele>
<time>2016-01-08T19:27:34Z</time>
</trkpt>
<trkpt lat="39.3355416" lon="-0.6096383">
<ele>141</ele>
<time>2016-01-08T19:27:36Z</time>
</trkpt>
<trkpt lat="39.3355416" lon="-0.6096383">
<ele>141</ele>
<time>2016-01-08T19:27:38Z</time>
</trkpt>
<trkpt lat="39.3355416" lon="-0.6096383">
<ele>141</ele>
<time>2016-01-08T19:27:40Z</time>
</trkpt>
<trkpt lat="39.3355416" lon="-0.6096383">
<ele>141</ele>
<time>2016-01-08T19:27:42Z</time>
</trkpt>
<trkpt lat="39.3355416" lon="-0.6096383">
<ele>141</ele>
<time>2016-01-08T19:27:44Z</time>
</trkpt>
<trkpt lat="39.3355416" lon="-0.6096383">
<ele>141</ele>
<time>2016-01-08T19:27:46Z</time>
</trkpt>
<trkpt lat="39.3355416" lon="-0.6096383">
<ele>141</ele>
<time>2016-01-08T19:27:48Z</time>
</trkpt>
<trkpt lat="39.3355416" lon="-0.6096383">
<ele>141</ele>
<time>2016-01-08T19:27:50Z</time>
</trkpt>
<trkpt lat="39.3355416" lon="-0.6096383">
<ele>141</ele>
<time>2016-01-08T19:27:52Z</time>
</trkpt>
<trkpt lat="39.3355416" lon="-0.6096383">
<ele>141</ele>
<time>2016-01-08T19:27:54Z</time>
</trkpt>
<trkpt lat="39.3355416" lon="-0.6096383">
<ele>141</ele>
<time>2016-01-08T19:27:56Z</time>
</trkpt>
<trkpt lat="39.335465" lon="-0.6097049">
<ele>140</ele>
<time>2016-01-08T19:27:58Z</time>
</trkpt>
<trkpt lat="39.3354566" lon="-0.6097216">
<ele>140</ele>
<time>2016-01-08T19:28:00Z</time>
</trkpt>
<trkpt lat="39.3354566" lon="-0.6097216">
<ele>140</ele>
<time>2016-01-08T19:28:02Z</time>
</trkpt>
<trkpt lat="39.3354566" lon="-0.6097216">
<ele>140</ele>
<time>2016-01-08T19:28:04Z</time>
</trkpt>
<trkpt lat="39.3354566" lon="-0.6097216">
<ele>140</ele>
<time>2016-01-08T19:28:06Z</time>
</trkpt>
<trkpt lat="39.3354566" lon="-0.6097216">
<ele>140</ele>
<time>2016-01-08T19:28:08Z</time>
</trkpt>
<trkpt lat="39.335445" lon="-0.6097816">
<ele>140</ele>
<time>2016-01-08T19:28:10Z</time>
</trkpt>
<trkpt lat="39.335445" lon="-0.6097966">
<ele>140</ele>
<time>2016-01-08T19:28:12Z</time>
</trkpt>
<trkpt lat="39.33545" lon="-0.6097983">
<ele>140</ele>
<time>2016-01-08T19:28:14Z</time>
</trkpt>
<trkpt lat="39.3354566" lon="-0.6098033">
<ele>140</ele>
<time>2016-01-08T19:28:16Z</time>
</trkpt>
<trkpt lat="39.33547" lon="-0.6098016">
<ele>140</ele>
<time>2016-01-08T19:28:18Z</time>
</trkpt>
<trkpt lat="39.3354716" lon="-0.6098">
<ele>140</ele>
<time>2016-01-08T19:28:20Z</time>
</trkpt>
<trkpt lat="39.3354716" lon="-0.6098">
<ele>140</ele>
<time>2016-01-08T19:28:22Z</time>
</trkpt>
<trkpt lat="39.3354716" lon="-0.6098">
<ele>140</ele>
<time>2016-01-08T19:28:24Z</time>
</trkpt>
<trkpt lat="39.3354716" lon="-0.6098">
<ele>140</ele>
<time>2016-01-08T19:28:26Z</time>
</trkpt>
<trkpt lat="39.3354716" lon="-0.6098">
<ele>140</ele>
<time>2016-01-08T19:28:28Z</time>
</trkpt>
<trkpt lat="39.3354716" lon="-0.6098">
<ele>140</ele>
<time>2016-01-08T19:28:30Z</time>
</trkpt>
<trkpt lat="39.3354716" lon="-0.6098">
<ele>140</ele>
<time>2016-01-08T19:28:32Z</time>
</trkpt>
<trkpt lat="39.3354716" lon="-0.6098">
<ele>140</ele>
<time>2016-01-08T19:28:34Z</time>
</trkpt>
<trkpt lat="39.3354716" lon="-0.6098">
<ele>140</ele>
<time>2016-01-08T19:28:36Z</time>
</trkpt>
<trkpt lat="39.3354716" lon="-0.6098">
<ele>140</ele>
<time>2016-01-08T19:28:38Z</time>
</trkpt>
<trkpt lat="39.3354716" lon="-0.6098">
<ele>140</ele>
<time>2016-01-08T19:28:40Z</time>
</trkpt>
<trkpt lat="39.3354716" lon="-0.6098">
<ele>140</ele>
<time>2016-01-08T19:28:42Z</time>
</trkpt>
<trkpt lat="39.3354716" lon="-0.6098">
<ele>140</ele>
<time>2016-01-08T19:28:44Z</time>
</trkpt>
<trkpt lat="39.3354716" lon="-0.6098">
<ele>140</ele>
<time>2016-01-08T19:28:46Z</time>
</trkpt>
<trkpt lat="39.3354716" lon="-0.6098">
<ele>140</ele>
<time>2016-01-08T19:28:48Z</time>
</trkpt>
<trkpt lat="39.3354716" lon="-0.6098">
<ele>140</ele>
<time>2016-01-08T19:28:50Z</time>
</trkpt>
<trkpt lat="39.3354716" lon="-0.6098">
<ele>140</ele>
<time>2016-01-08T19:28:52Z</time>
</trkpt>
<trkpt lat="39.3354716" lon="-0.6098">
<ele>140</ele>
<time>2016-01-08T19:28:54Z</time>
</trkpt>
<trkpt lat="39.3354716" lon="-0.6098">
<ele>140</ele>
<time>2016-01-08T19:28:56Z</time>
</trkpt>
<trkpt lat="39.3354716" lon="-0.6098">
<ele>140</ele>
<time>2016-01-08T19:28:58Z</time>
</trkpt>
<trkpt lat="39.3354716" lon="-0.6098">
<ele>140</ele>
<time>2016-01-08T19:29:00Z</time>
</trkpt>
<trkpt lat="39.33548" lon="-0.609675">
<ele>139</ele>
<time>2016-01-08T19:29:02Z</time>
</trkpt>
<trkpt lat="39.335485" lon="-0.6096633">
<ele>139</ele>
<time>2016-01-08T19:29:04Z</time>
</trkpt>
<trkpt lat="39.335485" lon="-0.6096633">
<ele>139</ele>
<time>2016-01-08T19:29:06Z</time>
</trkpt>
<trkpt lat="39.335485" lon="-0.6096633">
<ele>139</ele>
<time>2016-01-08T19:29:08Z</time>
</trkpt>
<trkpt lat="39.335485" lon="-0.6096633">
<ele>139</ele>
<time>2016-01-08T19:29:10Z</time>
</trkpt>
<trkpt lat="39.335485" lon="-0.6096633">
<ele>139</ele>
<time>2016-01-08T19:29:12Z</time>
</trkpt>
<trkpt lat="39.335485" lon="-0.6096633">
<ele>139</ele>
<time>2016-01-08T19:29:14Z</time>
</trkpt>
<trkpt lat="39.335485" lon="-0.6096633">
<ele>139</ele>
<time>2016-01-08T19:29:16Z</time>
</trkpt>
<trkpt lat="39.335485" lon="-0.6096633">
<ele>139</ele>
<time>2016-01-08T19:29:18Z</time>
</trkpt>
<trkpt lat="39.335485" lon="-0.6096633">
<ele>139</ele>
<time>2016-01-08T19:29:20Z</time>
</trkpt>
<trkpt lat="" lon="">
<ele></ele>
<time>2016-01-08TZ</time>
</trkpt>
</trkseg>
</trk>
<wpt lat="" lon="">
	<name></name>
	<desc></desc>
	<cmt></cmt>
	<photoid></photoid>
	<type></type>
</wpt>
</gpx>
